Time;durP1;ratioP1;P1;durP2;ratioP2;P2;SDS_P1;SDS_P2;PMS_P1;PMS_P2;Temp;Humidity;BMP_temperature;BMP_pressure;BME280_temperature;BME280_humidity;BME280_pressure;Samples;Min_cycle;Max_cycle;Signal;HPM_P1;HPM_P2
2022/11/07 00:02:04;;;;;;;2.00;1.67;;;10.80;95.10;;;;;;5099947;28;20183;-45
2022/11/07 00:04:30;;;;;;;1.77;1.50;;;10.80;95.40;;;;;;5100346;28;20212;-46
2022/11/07 00:06:56;;;;;;;1.97;1.50;;;10.80;95.50;;;;;;5099978;28;20803;-44
2022/11/07 00:09:22;;;;;;;2.20;1.37;;;10.80;95.90;;;;;;5081785;28;20467;-44
2022/11/07 00:11:47;;;;;;;1.80;1.50;;;10.70;95.90;;;;;;5099478;28;20542;-46
2022/11/07 00:14:14;;;;;;;1.63;1.33;;;10.70;95.90;;;;;;5100192;28;20325;-46
2022/11/07 00:16:40;;;;;;;1.63;1.10;;;10.70;96.00;;;;;;5100250;28;20482;-45
2022/11/07 00:19:06;;;;;;;1.73;1.07;;;10.70;96.00;;;;;;5099895;28;20424;-43
2022/11/07 00:21:32;;;;;;;1.80;0.90;;;10.70;96.10;;;;;;5099922;28;20269;-44
2022/11/07 00:23:57;;;;;;;1.30;0.93;;;10.70;96.20;;;;;;5099980;28;20188;-44
2022/11/07 00:26:23;;;;;;;1.70;1.33;;;10.70;96.40;;;;;;5099765;28;20218;-44
2022/11/07 00:28:49;;;;;;;2.17;1.00;;;10.60;96.50;;;;;;5082044;28;20177;-43
2022/11/07 00:31:15;;;;;;;2.20;1.30;;;10.60;96.80;;;;;;5099989;28;20571;-47
2022/11/07 00:33:41;;;;;;;2.20;1.30;;;10.60;96.90;;;;;;5082359;28;20426;-46
2022/11/07 00:36:08;;;;;;;1.27;1.03;;;10.60;97.00;;;;;;5099808;28;20720;-44
2022/11/07 00:38:34;;;;;;;1.57;1.10;;;10.60;97.00;;;;;;5099966;28;20422;-45
2022/11/07 00:41:02;;;;;;;1.43;1.00;;;10.60;97.10;;;;;;5082070;28;20501;-45
2022/11/07 00:43:28;;;;;;;2.23;1.40;;;10.60;97.20;;;;;;5098345;28;20181;-44
2022/11/07 00:45:54;;;;;;;1.40;1.20;;;10.60;97.40;;;;;;5099586;28;20470;-43
2022/11/07 00:48:19;;;;;;;2.43;1.13;;;10.60;97.40;;;;;;5099864;28;20698;-47
2022/11/07 00:50:45;;;;;;;1.97;1.30;;;10.60;97.40;;;;;;5099544;28;20190;-44
2022/11/07 00:53:11;;;;;;;3.57;1.40;;;10.70;97.40;;;;;;5098742;28;20203;-44
2022/11/07 00:55:36;;;;;;;2.50;1.27;;;10.70;97.40;;;;;;5098104;28;20411;-44
2022/11/07 00:58:02;;;;;;;1.50;1.10;;;10.70;97.40;;;;;;5098392;28;20615;-45
2022/11/07 01:00:28;;;;;;;1.43;1.13;;;10.70;97.40;;;;;;5098392;28;20192;-44
2022/11/07 01:05:39;;;;;;;1.50;1.03;;;10.70;97.40;;;;;;5099305;28;20529;-46
2022/11/07 01:08:05;;;;;;;1.80;1.30;;;10.70;97.50;;;;;;5099043;28;20434;-44
2022/11/07 01:10:31;;;;;;;1.90;1.40;;;10.60;97.50;;;;;;5099296;28;20455;-45
2022/11/07 01:12:57;;;;;;;1.50;1.27;;;10.60;97.60;;;;;;5099304;28;20234;-43
2022/11/07 01:15:23;;;;;;;1.30;1.10;;;10.70;97.60;;;;;;5099468;28;20497;-43
2022/11/07 01:17:48;;;;;;;2.07;1.33;;;10.60;97.70;;;;;;5098827;28;20196;-42
2022/11/07 01:20:14;;;;;;;1.50;1.30;;;10.60;97.70;;;;;;5099000;28;20189;-42
2022/11/07 01:22:40;;;;;;;1.40;1.30;;;10.60;97.80;;;;;;5098193;28;20181;-42
2022/11/07 01:25:06;;;;;;;2.30;1.40;;;10.70;97.80;;;;;;5098203;28;20265;-43
2022/11/07 01:27:31;;;;;;;2.57;1.60;;;10.60;97.70;;;;;;5099066;28;20173;-44
2022/11/07 01:29:57;;;;;;;2.90;1.60;;;10.60;97.70;;;;;;5098773;28;20431;-44
2022/11/07 01:32:23;;;;;;;2.30;1.40;;;10.70;97.70;;;;;;5098576;28;20571;-43
2022/11/07 01:34:48;;;;;;;1.80;1.50;;;10.70;97.60;;;;;;5098383;28;20190;-42
2022/11/07 01:37:14;;;;;;;2.10;1.33;;;10.70;97.60;;;;;;5080597;28;20176;-42
2022/11/07 01:39:40;;;;;;;5.93;2.10;;;10.60;97.40;;;;;;5099111;28;20184;-42
2022/11/07 01:42:05;;;;;;;2.00;1.70;;;10.70;97.40;;;;;;5098701;28;20633;-43
2022/11/07 01:44:31;;;;;;;2.10;1.90;;;10.70;97.40;;;;;;5098308;28;20580;-43
2022/11/07 01:46:58;;;;;;;2.07;1.43;;;10.60;97.20;;;;;;5098500;28;20186;-44
2022/11/07 01:49:27;;;;;;;2.13;1.50;;;10.70;97.30;;;;;;5098187;28;20208;-44
2022/11/07 01:52:11;;;;;;;2.10;1.40;;;10.70;97.20;;;;;;5098082;28;20509;-42
2022/11/07 01:54:49;;;;;;;2.53;1.70;;;10.70;97.10;;;;;;5097396;28;20723;-43
2022/11/07 01:57:29;;;;;;;1.83;1.50;;;10.70;97.10;;;;;;5098100;28;20775;-44
2022/11/07 01:59:57;;;;;;;2.67;1.87;;;10.70;97.10;;;;;;5080527;28;20407;-42
2022/11/07 02:02:25;;;;;;;2.63;1.70;;;10.70;97.20;;;;;;5098167;28;20434;-43
2022/11/07 02:04:51;;;;;;;2.30;1.50;;;10.70;97.20;;;;;;5098088;28;20466;-44
2022/11/07 02:07:21;;;;;;;3.73;1.87;;;10.70;97.20;;;;;;5098271;28;20477;-43
2022/11/07 02:09:48;;;;;;;2.07;1.73;;;10.70;97.20;;;;;;5098646;28;20172;-43
2022/11/07 02:12:15;;;;;;;2.63;1.57;;;10.70;97.20;;;;;;5097964;28;20422;-42
2022/11/07 02:14:41;;;;;;;2.13;1.20;;;10.70;97.20;;;;;;5097823;28;20476;-43
2022/11/07 02:17:08;;;;;;;2.77;1.50;;;10.70;97.20;;;;;;5097801;28;20860;-45
2022/11/07 02:19:40;;;;;;;2.97;1.70;;;10.70;97.20;;;;;;5080363;28;20490;-46
2022/11/07 02:22:39;;;;;;;3.03;1.90;;;10.80;97.20;;;;;;5098142;28;20415;-42
2022/11/07 02:25:08;;;;;;;1.90;1.63;;;10.80;97.10;;;;;;5098013;28;20489;-44
2022/11/07 02:27:33;;;;;;;2.60;1.87;;;10.80;97.10;;;;;;5097808;28;20419;-45
2022/11/07 02:30:03;;;;;;;2.13;1.60;;;10.80;97.10;;;;;;5098023;28;20411;-42
2022/11/07 02:32:29;;;;;;;2.27;1.90;;;10.90;97.10;;;;;;5097436;28;20566;-43
2022/11/07 02:34:59;;;;;;;2.30;1.67;;;10.90;97.10;;;;;;5097197;28;20435;-43
2022/11/07 02:37:37;;;;;;;2.57;1.60;;;10.90;97.10;;;;;;5097914;28;20183;-44
2022/11/07 02:43:27;;;;;;;1.93;1.40;;;11.00;97.00;;;;;;5097458;28;20902;-45
2022/11/07 02:45:53;;;;;;;3.10;1.50;;;11.00;96.80;;;;;;5096886;28;20807;-43
2022/11/07 02:48:19;;;;;;;1.63;1.40;;;11.00;96.70;;;;;;5079202;28;20903;-44
2022/11/07 02:50:45;;;;;;;2.03;1.53;;;11.00;96.60;;;;;;5097617;28;20414;-44
2022/11/07 02:53:10;;;;;;;2.03;1.57;;;11.10;96.70;;;;;;5097897;28;20176;-44
2022/11/07 02:55:36;;;;;;;2.20;1.60;;;11.10;96.70;;;;;;5097559;28;20618;-43
2022/11/07 02:58:02;;;;;;;2.87;1.83;;;11.10;96.60;;;;;;5096782;28;20225;-43
2022/11/07 03:00:27;;;;;;;1.77;1.50;;;11.10;96.60;;;;;;5097245;28;20206;-43
2022/11/07 03:02:53;;;;;;;2.10;1.50;;;11.10;96.50;;;;;;5093615;28;20248;-44
2022/11/07 03:05:19;;;;;;;4.77;1.80;;;11.10;96.50;;;;;;5093509;28;20273;-43
2022/11/07 03:07:46;;;;;;;2.07;1.53;;;11.10;96.50;;;;;;5099946;28;20272;-44
2022/11/07 03:10:13;;;;;;;2.00;1.57;;;11.10;96.50;;;;;;5101658;28;20403;-43
2022/11/07 03:12:39;;;;;;;2.70;1.40;;;11.10;96.40;;;;;;5101068;28;20489;-44
2022/11/07 03:15:06;;;;;;;3.50;1.70;;;11.10;96.40;;;;;;5101100;28;20408;-42
2022/11/07 03:17:32;;;;;;;3.47;1.60;;;11.10;96.40;;;;;;5101580;28;20445;-43
2022/11/07 03:19:58;;;;;;;3.80;1.53;;;11.10;96.40;;;;;;5100969;28;20762;-43
2022/11/07 03:22:23;;;;;;;1.90;1.50;;;11.10;96.40;;;;;;5101019;28;20186;-43
2022/11/07 03:24:49;;;;;;;4.03;1.60;;;11.10;96.40;;;;;;5101172;28;20466;-44
2022/11/07 03:27:15;;;;;;;2.13;1.50;;;11.10;96.40;;;;;;5101047;28;20203;-44
2022/11/07 03:29:41;;;;;;;2.80;1.50;;;11.10;96.40;;;;;;5100572;28;20643;-43
2022/11/07 03:32:07;;;;;;;2.10;1.53;;;11.10;96.40;;;;;;5101024;28;20508;-45
2022/11/07 03:34:32;;;;;;;2.97;1.43;;;11.10;96.40;;;;;;5100674;28;20176;-43
2022/11/07 03:36:58;;;;;;;1.80;1.40;;;11.10;96.40;;;;;;5101278;28;20492;-44
2022/11/07 03:39:24;;;;;;;2.40;1.50;;;11.00;96.30;;;;;;5101281;28;20271;-43
2022/11/07 03:41:50;;;;;;;2.90;1.33;;;11.00;96.30;;;;;;5100249;28;20187;-45
2022/11/07 03:44:15;;;;;;;3.10;1.30;;;11.00;96.40;;;;;;5100098;28;20192;-44
2022/11/07 03:46:41;;;;;;;1.50;1.20;;;11.00;96.40;;;;;;5095655;28;20409;-44
2022/11/07 03:49:07;;;;;;;3.13;1.23;;;11.00;96.40;;;;;;5079691;28;20182;-43
2022/11/07 03:51:32;;;;;;;2.07;1.57;;;10.90;96.30;;;;;;5080155;28;20186;-44
2022/11/07 03:53:58;;;;;;;2.10;1.50;;;10.90;96.30;;;;;;5080335;28;20228;-43
2022/11/07 03:56:23;;;;;;;3.23;1.47;;;10.90;96.30;;;;;;5080248;28;20559;-43
2022/11/07 03:58:49;;;;;;;2.60;1.43;;;10.90;96.30;;;;;;5099909;28;20252;-44
2022/11/07 04:01:15;;;;;;;1.80;1.50;;;10.90;96.40;;;;;;5100718;28;20181;-42
2022/11/07 04:03:40;;;;;;;1.70;1.30;;;10.90;96.40;;;;;;5100228;28;20453;-45
2022/11/07 04:06:06;;;;;;;1.60;1.30;;;10.90;96.40;;;;;;5100317;28;20243;-43
2022/11/07 04:08:32;;;;;;;3.03;1.40;;;10.90;96.40;;;;;;5100407;28;20201;-43
2022/11/07 04:10:58;;;;;;;1.90;1.33;;;10.90;96.50;;;;;;5099126;28;20504;-44
2022/11/07 04:18:55;;;;;;;2.03;1.37;;;10.80;96.40;;;;;;5098124;28;20431;-43
2022/11/07 04:21:21;;;;;;;2.30;1.40;;;10.80;96.50;;;;;;5098575;28;20552;-42
2022/11/07 04:23:46;;;;;;;2.53;1.20;;;10.80;96.50;;;;;;5099016;28;20524;-43
2022/11/07 04:28:56;;;;;;;2.10;1.37;;;10.70;96.50;;;;;;5099493;28;20227;-43
2022/11/07 04:31:22;;;;;;;1.70;1.33;;;10.70;96.40;;;;;;5099949;28;20481;-43
2022/11/07 04:33:48;;;;;;;2.00;1.40;;;10.70;96.50;;;;;;5100016;28;20173;-45
2022/11/07 04:36:13;;;;;;;2.10;1.10;;;10.70;96.50;;;;;;5100236;28;20176;-43
2022/11/07 04:38:39;;;;;;;2.07;1.57;;;10.70;96.50;;;;;;5099536;28;20175;-43
2022/11/07 04:41:04;;;;;;;3.43;1.60;;;10.70;96.50;;;;;;5099779;28;20193;-45
2022/11/07 04:43:30;;;;;;;2.73;1.23;;;10.70;96.50;;;;;;5098888;28;20250;-45
2022/11/07 04:45:56;;;;;;;4.90;1.40;;;10.60;96.50;;;;;;5098001;28;20243;-43
2022/11/07 04:48:21;;;;;;;1.93;1.40;;;10.60;96.50;;;;;;5098931;28;20478;-44
2022/11/07 04:50:47;;;;;;;3.30;1.57;;;10.60;96.80;;;;;;5099616;28;20238;-51
2022/11/07 04:53:15;;;;;;;2.80;1.60;;;10.60;96.50;;;;;;5099418;28;20181;-43
2022/11/07 04:55:41;;;;;;;2.67;1.50;;;10.50;96.40;;;;;;5099284;28;20420;-43
2022/11/07 04:58:07;;;;;;;2.00;1.33;;;10.50;96.50;;;;;;5098032;28;20541;-47
2022/11/07 05:00:33;;;;;;;1.50;1.30;;;10.50;96.50;;;;;;5097731;28;20406;-43
2022/11/07 05:02:59;;;;;;;2.27;1.70;;;10.50;96.50;;;;;;5098001;28;20432;-44
2022/11/07 05:05:24;;;;;;;2.27;1.40;;;10.50;96.50;;;;;;5098135;28;20572;-45
2022/11/07 05:07:50;;;;;;;2.70;1.80;;;10.40;96.50;;;;;;5098123;28;20586;-44
2022/11/07 05:10:20;;;;;;;2.07;1.53;;;10.40;96.50;;;;;;5098195;28;20508;-44
2022/11/07 05:12:45;;;;;;;2.57;1.90;;;10.40;96.50;;;;;;5080154;28;20578;-42
2022/11/07 05:15:11;;;;;;;1.63;1.43;;;10.40;96.50;;;;;;5097120;28;20817;-46
2022/11/07 05:17:37;;;;;;;2.20;2.00;;;10.40;96.50;;;;;;5098734;28;20187;-46
2022/11/07 05:20:03;;;;;;;3.03;2.20;;;10.40;96.50;;;;;;5098970;28;20181;-46
2022/11/07 05:25:13;;;;;;;3.20;1.63;;;10.30;96.50;;;;;;5097297;28;20466;-44
2022/11/07 05:27:38;;;;;;;3.73;1.60;;;10.30;96.70;;;;;;5096316;28;20695;-44
2022/11/07 05:30:05;;;;;;;3.90;1.80;;;10.30;96.80;;;;;;5095560;28;20181;-43
2022/11/07 05:32:36;;;;;;;2.10;1.67;;;10.30;96.90;;;;;;5094370;28;20178;-46
2022/11/07 05:35:03;;;;;;;2.47;1.53;;;10.30;97.00;;;;;;5093859;28;20513;-43
2022/11/07 05:37:29;;;;;;;3.47;1.57;;;10.30;97.10;;;;;;5095329;28;20418;-45
2022/11/07 05:39:54;;;;;;;4.07;1.60;;;10.30;97.20;;;;;;5095905;28;20422;-44
2022/11/07 05:42:20;;;;;;;1.93;1.33;;;10.30;97.20;;;;;;5096331;28;20180;-44
2022/11/07 05:44:46;;;;;;;2.00;1.30;;;10.30;97.30;;;;;;5094300;28;20556;-45
2022/11/07 05:47:11;;;;;;;2.33;1.53;;;10.30;97.30;;;;;;5094685;28;20169;-45
2022/11/07 05:49:37;;;;;;;4.03;2.43;;;10.30;97.30;;;;;;5093765;28;20555;-43
2022/11/07 05:52:02;;;;;;;4.27;1.70;;;10.30;97.30;;;;;;5077398;28;20210;-45
2022/11/07 05:54:29;;;;;;;2.57;1.63;;;10.30;97.30;;;;;;5094603;28;20584;-43
2022/11/07 05:56:56;;;;;;;2.20;1.70;;;10.30;97.30;;;;;;5097237;28;20228;-46
2022/11/07 05:59:21;;;;;;;3.53;1.70;;;10.30;97.40;;;;;;5096755;28;20414;-44
2022/11/07 06:01:47;;;;;;;4.00;1.37;;;10.30;97.40;;;;;;5094309;28;20418;-46
2022/11/07 06:04:13;;;;;;;2.07;1.67;;;10.30;97.40;;;;;;5076922;28;20547;-45
2022/11/07 06:06:38;;;;;;;3.47;2.10;;;10.30;97.40;;;;;;5094131;28;20509;-45
2022/11/07 06:09:04;;;;;;;2.27;1.90;;;10.40;97.50;;;;;;5093596;28;20173;-45
2022/11/07 06:11:31;;;;;;;2.80;1.73;;;10.40;97.60;;;;;;5091433;28;20228;-45
2022/11/07 06:13:57;;;;;;;2.50;1.57;;;10.40;97.70;;;;;;5093951;28;20570;-46
2022/11/07 06:16:22;;;;;;;4.03;2.00;;;10.40;97.80;;;;;;5095813;28;20422;-43
2022/11/07 06:18:48;;;;;;;2.23;1.20;;;10.40;98.00;;;;;;5094890;28;20184;-45
2022/11/07 06:21:14;;;;;;;3.50;1.40;;;10.40;98.20;;;;;;5095148;28;20180;-44
2022/11/07 06:23:40;;;;;;;5.27;2.30;;;10.50;98.30;;;;;;5093759;28;20432;-42
2022/11/07 06:26:06;;;;;;;2.23;1.63;;;10.50;98.40;;;;;;5093485;28;20473;-44
2022/11/07 06:28:31;;;;;;;2.80;1.77;;;10.50;98.50;;;;;;5095499;28;20381;-43
2022/11/07 06:31:01;;;;;;;3.70;1.80;;;10.50;98.60;;;;;;5093620;28;20209;-42
2022/11/07 06:33:28;;;;;;;4.57;2.00;;;10.60;98.70;;;;;;5094534;28;20685;-43
2022/11/07 06:35:54;;;;;;;2.80;1.40;;;10.60;98.80;;;;;;5093794;28;20850;-43
2022/11/07 06:38:20;;;;;;;2.03;1.43;;;10.60;98.80;;;;;;5102368;28;20875;-42
2022/11/07 06:40:46;;;;;;;2.43;1.57;;;10.70;98.90;;;;;;5097227;28;20199;-42
2022/11/07 06:43:16;;;;;;;5.33;1.80;;;10.70;99.00;;;;;;5113367;28;20472;-42
2022/11/07 06:45:43;;;;;;;2.77;1.90;;;10.70;99.00;;;;;;5111540;28;20211;-46
2022/11/07 06:48:08;;;;;;;4.63;1.80;;;10.80;99.00;;;;;;5111494;28;20468;-43
2022/11/07 06:50:34;;;;;;;2.67;1.53;;;10.80;99.00;;;;;;5112683;28;20418;-42
2022/11/07 06:53:05;;;;;;;4.17;2.00;;;10.90;99.00;;;;;;5111852;28;20907;-42
2022/11/07 06:55:32;;;;;;;3.87;1.93;;;11.00;99.00;;;;;;5115011;28;20211;-44
2022/11/07 06:57:59;;;;;;;5.23;2.23;;;11.00;98.90;;;;;;5096871;28;20562;-43
2022/11/07 07:00:27;;;;;;;3.70;1.90;;;11.10;98.80;;;;;;5112579;28;20774;-43
2022/11/07 07:02:52;;;;;;;5.60;1.90;;;11.20;98.70;;;;;;5110513;28;20427;-43
2022/11/07 07:05:18;;;;;;;3.70;1.87;;;11.20;98.50;;;;;;5116445;28;20472;-43
2022/11/07 07:07:44;;;;;;;4.03;1.60;;;11.20;98.40;;;;;;5115887;28;20778;-43
2022/11/07 07:10:09;;;;;;;2.73;1.83;;;11.30;98.30;;;;;;5116198;28;20226;-44
2022/11/07 07:12:35;;;;;;;3.60;1.50;;;11.40;98.20;;;;;;5116652;28;20420;-42
2022/11/07 07:15:01;;;;;;;5.67;1.87;;;11.40;98.10;;;;;;5116580;28;20184;-42
2022/11/07 07:17:26;;;;;;;3.67;2.00;;;11.50;98.00;;;;;;5113838;28;20207;-43
2022/11/07 07:19:52;;;;;;;4.27;2.37;;;11.50;97.90;;;;;;5113910;28;20300;-44
2022/11/07 07:22:18;;;;;;;3.13;1.60;;;11.60;97.80;;;;;;5114062;28;20287;-43
2022/11/07 07:24:44;;;;;;;3.67;1.80;;;11.60;97.70;;;;;;5113691;28;20605;-43
2022/11/07 07:27:10;;;;;;;2.33;1.57;;;11.70;97.60;;;;;;5112307;28;20421;-43
2022/11/07 07:29:35;;;;;;;2.27;1.63;;;11.70;97.50;;;;;;5114599;28;20418;-43
2022/11/07 07:32:01;;;;;;;4.60;2.30;;;11.80;97.40;;;;;;5116244;28;20547;-43
2022/11/07 07:34:27;;;;;;;4.77;2.97;;;11.80;97.30;;;;;;5113555;28;20170;-42
2022/11/07 07:36:53;;;;;;;3.50;1.90;;;11.90;97.20;;;;;;5112560;28;20195;-45
2022/11/07 07:39:18;;;;;;;5.33;2.43;;;12.00;97.10;;;;;;5116208;28;20182;-43
2022/11/07 07:41:44;;;;;;;4.90;2.30;;;12.10;97.00;;;;;;5116188;28;20466;-43
2022/11/07 07:44:10;;;;;;;5.30;2.03;;;12.20;96.90;;;;;;5115701;28;20170;-43
2022/11/07 07:46:36;;;;;;;3.50;2.10;;;12.30;96.70;;;;;;5115482;28;20478;-43
2022/11/07 07:49:01;;;;;;;3.87;1.90;;;12.40;96.60;;;;;;5116134;28;20208;-44
2022/11/07 07:51:27;;;;;;;4.73;2.00;;;12.50;96.40;;;;;;5116530;28;20433;-43
2022/11/07 07:53:52;;;;;;;2.73;1.70;;;12.60;96.20;;;;;;5118679;28;20187;-44
2022/11/07 07:56:18;;;;;;;6.00;1.80;;;12.70;96.00;;;;;;5120197;28;20176;-45
2022/11/07 07:58:45;;;;;;;4.37;1.90;;;12.80;96.10;;;;;;5119660;28;20595;-46
2022/11/07 08:01:10;;;;;;;3.40;1.70;;;12.90;95.50;;;;;;5099432;28;20283;-44
2022/11/07 08:03:36;;;;;;;3.90;2.07;;;13.00;95.30;;;;;;5118320;28;20529;-43
2022/11/07 08:06:04;;;;;;;3.73;1.87;;;13.10;95.10;;;;;;5112775;28;20208;-43
2022/11/07 08:08:30;;;;;;;4.87;2.30;;;13.20;94.80;;;;;;5098232;28;20418;-44
2022/11/07 08:11:03;;;;;;;5.27;2.20;;;13.20;94.70;;;;;;5098211;28;20420;-43
2022/11/07 08:13:29;;;;;;;4.03;2.30;;;13.30;94.60;;;;;;5098439;28;20462;-44
2022/11/07 08:15:55;;;;;;;4.60;1.80;;;13.30;94.40;;;;;;5097595;28;20415;-44
2022/11/07 08:18:22;;;;;;;4.33;2.33;;;13.30;94.30;;;;;;5078102;28;20233;-43
2022/11/07 08:20:53;;;;;;;4.07;2.00;;;13.30;94.20;;;;;;5095067;28;20780;-43
2022/11/07 08:23:19;;;;;;;3.43;1.93;;;13.30;94.10;;;;;;5094016;28;20845;-43
2022/11/07 08:25:52;;;;;;;2.10;1.60;;;13.30;94.00;;;;;;5094112;28;20822;-44
2022/11/07 08:28:19;;;;;;;3.73;2.37;;;13.30;93.90;;;;;;5095073;28;20716;-44
2022/11/07 08:30:45;;;;;;;4.40;1.80;;;13.30;93.80;;;;;;5096540;28;20455;-44
2022/11/07 08:33:11;;;;;;;4.13;2.10;;;13.40;93.80;;;;;;5096978;28;20420;-44
2022/11/07 08:35:37;;;;;;;4.17;1.87;;;13.40;93.70;;;;;;5096975;28;20186;-43
2022/11/07 08:38:03;;;;;;;3.53;1.73;;;13.40;93.60;;;;;;5097132;28;20446;-43
2022/11/07 08:40:28;;;;;;;5.33;2.07;;;13.50;93.50;;;;;;5097106;28;20176;-45
2022/11/07 08:42:59;;;;;;;6.90;2.23;;;13.50;93.40;;;;;;5097234;28;20238;-43
2022/11/07 08:45:24;;;;;;;5.73;1.80;;;13.50;93.30;;;;;;5098490;28;20854;-44
2022/11/07 08:47:54;;;;;;;4.47;2.00;;;13.60;93.20;;;;;;5097658;28;20526;-42
2022/11/07 08:50:20;;;;;;;4.63;2.10;;;13.70;93.10;;;;;;5098064;28;20570;-42
2022/11/07 08:52:45;;;;;;;10.73;2.90;;;13.80;92.90;;;;;;5098719;28;20431;-45
2022/11/07 08:55:11;;;;;;;3.47;1.70;;;13.90;92.70;;;;;;5098129;28;20642;-44
2022/11/07 08:57:36;;;;;;;5.77;2.00;;;14.20;92.60;;;;;;5095922;28;20315;-46
2022/11/07 09:00:03;;;;;;;4.33;2.33;;;14.40;92.30;;;;;;5095230;28;20233;-45
2022/11/07 09:02:29;;;;;;;4.53;1.60;;;14.60;92.00;;;;;;5094500;28;20268;-45
2022/11/07 09:04:54;;;;;;;3.63;1.63;;;14.80;91.60;;;;;;5094543;28;21036;-44
2022/11/07 09:07:20;;;;;;;3.23;1.40;;;15.00;91.20;;;;;;5095340;28;20482;-45
2022/11/07 09:09:46;;;;;;;3.80;1.67;;;15.20;91.00;;;;;;5097043;28;20168;-43
2022/11/07 09:12:11;;;;;;;5.70;1.50;;;15.40;90.70;;;;;;5097698;28;20240;-45
2022/11/07 09:14:37;;;;;;;5.10;2.00;;;15.60;90.50;;;;;;5079561;28;20162;-43
2022/11/07 09:17:02;;;;;;;3.60;2.00;;;15.80;90.20;;;;;;5097924;28;20208;-42
2022/11/07 09:19:29;;;;;;;3.10;2.00;;;15.90;90.00;;;;;;5096980;28;20200;-42
2022/11/07 09:21:56;;;;;;;2.60;1.43;;;16.00;89.50;;;;;;5097905;28;20173;-44
2022/11/07 09:24:21;;;;;;;4.10;1.70;;;16.20;89.30;;;;;;5097363;28;20419;-42
2022/11/07 09:26:47;;;;;;;5.93;2.40;;;16.40;88.60;;;;;;5097695;28;20859;-42
2022/11/07 09:29:13;;;;;;;5.73;1.97;;;16.70;87.90;;;;;;5097400;28;20556;-43
2022/11/07 09:31:38;;;;;;;4.47;2.30;;;17.00;86.80;;;;;;5096168;28;20232;-43
2022/11/07 09:34:06;;;;;;;3.43;1.70;;;17.10;85.80;;;;;;5097024;28;20164;-45
2022/11/07 09:36:32;;;;;;;3.20;1.80;;;17.10;84.70;;;;;;5096194;28;20193;-42
2022/11/07 09:38:59;;;;;;;4.13;1.67;;;17.00;83.70;;;;;;5096518;28;20435;-43
2022/11/07 09:41:28;;;;;;;4.03;1.60;;;16.90;83.40;;;;;;5095962;28;20530;-45
2022/11/07 09:44:00;;;;;;;3.53;1.60;;;16.80;83.60;;;;;;5095981;28;20513;-44
2022/11/07 09:46:50;;;;;;;3.30;1.40;;;16.70;83.60;;;;;;5095921;28;20498;-44
2022/11/07 09:49:17;;;;;;;2.80;1.63;;;16.60;83.90;;;;;;5095942;28;20494;-44
2022/11/07 09:51:49;;;;;;;4.40;1.67;;;16.50;83.90;;;;;;5095923;28;20519;-43
2022/11/07 09:54:23;;;;;;;5.93;1.70;;;16.40;84.20;;;;;;5079413;28;20446;-44
2022/11/07 09:56:49;;;;;;;4.60;1.70;;;16.40;84.40;;;;;;5097544;28;20534;-43
2022/11/07 09:59:23;;;;;;;5.40;2.07;;;16.30;84.40;;;;;;5096788;28;20434;-43
2022/11/07 10:01:49;;;;;;;1.90;1.33;;;16.30;84.60;;;;;;5078780;28;20422;-45
2022/11/07 10:04:18;;;;;;;3.70;1.67;;;16.30;84.90;;;;;;5095016;28;20426;-45
2022/11/07 10:06:50;;;;;;;2.93;1.43;;;16.20;84.90;;;;;;5095358;28;20216;-45
2022/11/07 10:10:07;;;;;;;2.63;1.20;;;16.20;85.00;;;;;;5095872;28;20854;-43
2022/11/07 10:13:00;;;;;;;3.70;1.70;;;16.20;85.10;;;;;;5081008;28;20442;-45
2022/11/07 10:15:50;;;;;;;2.93;1.43;;;16.30;85.10;;;;;;5095843;28;20504;-43
2022/11/07 10:18:41;;;;;;;2.23;1.33;;;16.30;85.10;;;;;;5096375;28;20532;-46
2022/11/07 10:21:21;;;;;;;3.23;2.10;;;16.30;85.00;;;;;;5096833;28;20423;-44
2022/11/07 10:24:24;;;;;;;5.30;2.93;;;16.30;84.80;;;;;;5095972;28;20430;-44
2022/11/07 10:26:50;;;;;;;5.10;3.40;;;16.30;84.90;;;;;;5095694;28;20423;-44
2022/11/07 10:29:23;;;;;;;3.83;2.33;;;16.40;84.80;;;;;;5093738;28;20422;-48
2022/11/07 10:32:10;;;;;;;4.00;2.10;;;16.40;84.60;;;;;;5094846;28;20273;-45
2022/11/07 10:34:51;;;;;;;9.37;2.07;;;16.60;84.60;;;;;;5093908;28;20411;-45
2022/11/07 10:37:17;;;;;;;3.20;1.87;;;16.80;84.30;;;;;;5094675;28;20423;-44
2022/11/07 10:39:42;;;;;;;2.40;1.70;;;17.00;83.90;;;;;;5096583;28;20418;-45
2022/11/07 10:42:28;;;;;;;3.60;1.90;;;17.10;83.40;;;;;;5111635;28;20578;-44
2022/11/07 10:44:55;;;;;;;3.67;1.43;;;17.20;82.20;;;;;;5114698;28;20213;-45
2022/11/07 10:47:26;;;;;;;3.77;1.60;;;17.20;81.80;;;;;;5096636;28;20418;-45
2022/11/07 10:50:01;;;;;;;4.13;1.63;;;17.20;81.40;;;;;;5097287;28;20431;-48
2022/11/07 10:52:28;;;;;;;3.13;1.70;;;17.20;81.00;;;;;;5097279;28;20500;-44
2022/11/07 10:55:15;;;;;;;3.40;1.60;;;17.30;80.70;;;;;;5098850;28;21029;-43
2022/11/07 10:57:43;;;;;;;3.70;2.13;;;17.40;80.60;;;;;;5115420;28;20545;-42
2022/11/07 11:00:43;;;;;;;8.90;3.07;;;17.50;80.40;;;;;;5097743;28;20424;-43
2022/11/07 11:03:26;;;;;;;7.07;2.43;;;17.50;79.90;;;;;;5060907;28;20505;-43
2022/11/07 11:05:52;;;;;;;4.83;1.87;;;17.50;79.30;;;;;;5091130;28;20747;-43
2022/11/07 11:08:20;;;;;;;3.10;1.37;;;17.60;78.50;;;;;;5112049;28;20435;-43
2022/11/07 11:10:46;;;;;;;3.03;1.43;;;17.60;78.30;;;;;;5094936;28;20174;-45
2022/11/07 11:13:29;;;;;;;1.50;1.07;;;17.70;78.10;;;;;;5093888;28;20423;-44
2022/11/07 11:15:58;;;;;;;3.37;1.43;;;18.20;77.80;;;;;;5112347;28;20413;-42
2022/11/07 11:18:24;;;;;;;3.40;1.20;;;18.70;77.10;;;;;;5112317;28;20440;-42
2022/11/07 11:20:55;;;;;;;3.33;1.30;;;19.10;75.30;;;;;;5115254;28;20422;-45
2022/11/07 11:23:26;;;;;;;2.70;1.30;;;19.50;73.10;;;;;;5113980;28;20423;-44
2022/11/07 11:25:58;;;;;;;6.30;1.00;;;19.70;71.60;;;;;;5113259;28;20445;-47
2022/11/07 11:28:32;;;;;;;2.03;0.93;;;19.80;70.70;;;;;;5116346;28;20441;-45
2022/11/07 11:31:02;;;;;;;3.00;0.97;;;19.90;69.60;;;;;;5120158;28;20662;-44
2022/11/07 11:33:37;;;;;;;3.10;1.20;;;20.00;69.30;;;;;;5118031;28;20734;-43
2022/11/07 11:36:10;;;;;;;2.47;1.10;;;20.30;68.80;;;;;;5098388;28;20707;-44
2022/11/07 11:38:36;;;;;;;4.17;1.60;;;20.40;67.80;;;;;;5098596;28;20414;-47
2022/11/07 11:41:20;;;;;;;2.60;1.20;;;20.40;66.90;;;;;;5117481;28;20424;-44
2022/11/07 11:44:15;;;;;;;2.30;1.20;;;20.30;66.50;;;;;;5098892;28;20436;-45
2022/11/07 11:46:58;;;;;;;2.90;1.30;;;20.20;66.30;;;;;;5115445;28;20463;-46
2022/11/07 11:50:00;;;;;;;3.43;1.10;;;20.50;66.20;;;;;;5119627;28;20427;-43
2022/11/07 11:52:27;;;;;;;2.80;0.97;;;20.60;65.70;;;;;;5079988;28;20443;-42
2022/11/07 11:54:55;;;;;;;1.73;1.30;;;20.60;65.20;;;;;;5100802;28;20506;-43
2022/11/07 11:57:36;;;;;;;3.20;1.20;;;20.50;64.80;;;;;;5115264;28;20810;-43
2022/11/07 12:00:17;;;;;;;4.63;1.63;;;20.40;64.80;;;;;;5097746;28;20421;-46
2022/11/07 12:03:06;;;;;;;2.27;1.30;;;20.20;64.10;;;;;;5117618;28;20466;-44
2022/11/07 12:06:04;;;;;;;4.27;1.53;;;20.10;63.40;;;;;;5115507;28;20450;-44
2022/11/07 12:09:02;;;;;;;2.73;1.17;;;20.10;62.80;;;;;;5097016;28;20731;-43
2022/11/07 12:11:55;;;;;;;2.77;1.40;;;20.40;61.70;;;;;;5096563;28;20417;-45
2022/11/07 12:14:24;;;;;;;5.30;1.67;;;20.90;59.90;;;;;;5114156;28;20904;-45
2022/11/07 12:17:07;;;;;;;2.50;1.30;;;22.10;59.30;;;;;;5114657;28;20414;-45
2022/11/07 12:19:54;;;;;;;2.73;1.43;;;23.00;57.70;;;;;;5115472;28;20622;-44
2022/11/07 12:22:41;;;;;;;2.33;1.20;;;24.20;55.40;;;;;;5117799;28;20415;-46
2022/11/07 12:25:18;;;;;;;3.30;1.20;;;25.30;53.40;;;;;;5116020;28;20524;-43
2022/11/07 12:28:07;;;;;;;3.00;1.20;;;25.80;51.10;;;;;;5115724;28;20421;-46
2022/11/07 12:31:00;;;;;;;3.50;1.17;;;26.40;49.60;;;;;;5115084;28;20438;-43
2022/11/07 12:33:55;;;;;;;2.77;1.17;;;26.90;47.00;;;;;;5114203;28;20425;-46
2022/11/07 12:36:52;;;;;;;3.03;1.60;;;27.70;45.80;;;;;;5109865;28;20422;-45
2022/11/07 12:39:31;;;;;;;3.90;1.70;;;28.60;44.30;;;;;;5115548;28;20692;-44
2022/11/07 12:41:58;;;;;;;2.97;1.47;;;29.30;42.90;;;;;;5082094;28;20423;-43
2022/11/07 12:44:55;;;;;;;4.30;1.40;;;29.90;41.20;;;;;;5118647;28;20463;-45
2022/11/07 12:54:09;;;;;;;2.67;1.40;;;28.90;39.20;;;;;;5086361;28;20869;-43
2022/11/07 12:56:36;;;;;;;2.93;1.30;;;27.60;39.90;;;;;;5076909;28;20415;-44
2022/11/07 12:59:11;;;;;;;2.67;1.10;;;26.80;41.00;;;;;;5075349;28;20445;-43
2022/11/07 13:02:02;;;;;;;2.13;1.17;;;26.00;41.90;;;;;;5076062;28;20403;-44
2022/11/07 13:04:31;;;;;;;3.53;1.30;;;25.10;43.00;;;;;;5076932;28;20423;-45
2022/11/07 13:07:05;;;;;;;2.10;1.10;;;24.30;43.60;;;;;;5076166;28;20390;-45
2022/11/07 13:09:39;;;;;;;2.17;1.10;;;23.60;44.30;;;;;;5075652;28;20438;-44
2022/11/07 13:12:15;;;;;;;4.33;1.40;;;23.10;45.00;;;;;;5075013;28;20448;-44
2022/11/07 13:14:42;;;;;;;4.23;1.50;;;22.60;45.70;;;;;;5073804;28;20435;-43
2022/11/07 13:17:23;;;;;;;2.97;1.33;;;22.40;46.20;;;;;;5075003;28;20412;-45
2022/11/07 13:20:00;;;;;;;2.30;1.20;;;22.20;46.70;;;;;;5073957;28;20484;-43
2022/11/07 13:22:37;;;;;;;2.90;1.50;;;22.10;47.00;;;;;;5070014;28;20747;-45
2022/11/07 13:25:10;;;;;;;1.80;0.90;;;22.00;47.30;;;;;;5071825;28;20558;-45